sensor_id;sensor_type;location;lat;lon;timestamp;P1;durP1;ratioP1;P2;durP2;ratioP2
16977;SDS011;8605;52.548;4.918;2022-12-11T00:03:41;48.13;;;19.60;;
16977;SDS011;8605;52.548;4.918;2022-12-11T00:08:44;50.03;;;20.20;;
16977;SDS011;8605;52.548;4.918;2022-12-11T00:13:49;37.83;;;17.20;;
16977;SDS011;8605;52.548;4.918;2022-12-11T00:18:52;34.47;;;16.50;;
16977;SDS011;8605;52.548;4.918;2022-12-11T00:23:55;47.77;;;18.97;;
16977;SDS011;8605;52.548;4.918;2022-12-11T00:29:01;44.70;;;19.77;;
16977;SDS011;8605;52.548;4.918;2022-12-11T00:34:04;47.07;;;19.70;;
16977;SDS011;8605;52.548;4.918;2022-12-11T00:39:06;46.60;;;19.50;;
16977;SDS011;8605;52.548;4.918;2022-12-11T00:44:11;42.83;;;18.17;;
16977;SDS011;8605;52.548;4.918;2022-12-11T00:49:14;45.40;;;19.63;;
16977;SDS011;8605;52.548;4.918;2022-12-11T00:54:17;43.60;;;17.57;;
16977;SDS011;8605;52.548;4.918;2022-12-11T00:59:21;43.13;;;16.93;;
16977;SDS011;8605;52.548;4.918;2022-12-11T01:04:25;34.37;;;17.37;;
16977;SDS011;8605;52.548;4.918;2022-12-11T01:09:28;39.10;;;17.33;;
16977;SDS011;8605;52.548;4.918;2022-12-11T01:14:49;47.67;;;18.57;;
16977;SDS011;8605;52.548;4.918;2022-12-11T01:19:52;46.53;;;21.37;;
16977;SDS011;8605;52.548;4.918;2022-12-11T01:24:55;39.80;;;16.50;;
16977;SDS011;8605;52.548;4.918;2022-12-11T01:30:00;42.13;;;18.07;;
16977;SDS011;8605;52.548;4.918;2022-12-11T01:35:04;45.70;;;17.47;;
16977;SDS011;8605;52.548;4.918;2022-12-11T01:40:08;25.77;;;13.97;;
16977;SDS011;8605;52.548;4.918;2022-12-11T01:45:37;31.83;;;14.80;;
16977;SDS011;8605;52.548;4.918;2022-12-11T01:50:43;40.87;;;17.90;;
16977;SDS011;8605;52.548;4.918;2022-12-11T01:55:47;45.43;;;18.30;;
16977;SDS011;8605;52.548;4.918;2022-12-11T02:00:52;40.90;;;16.87;;
16977;SDS011;8605;52.548;4.918;2022-12-11T02:05:57;40.00;;;16.43;;
16977;SDS011;8605;52.548;4.918;2022-12-11T02:11:03;47.00;;;18.93;;
16977;SDS011;8605;52.548;4.918;2022-12-11T02:16:10;36.80;;;17.40;;
16977;SDS011;8605;52.548;4.918;2022-12-11T02:21:19;38.20;;;17.37;;
16977;SDS011;8605;52.548;4.918;2022-12-11T02:26:44;30.27;;;14.80;;
16977;SDS011;8605;52.548;4.918;2022-12-11T02:31:55;34.43;;;15.73;;
16977;SDS011;8605;52.548;4.918;2022-12-11T02:37:01;34.73;;;17.37;;
16977;SDS011;8605;52.548;4.918;2022-12-11T02:42:07;33.00;;;15.90;;
16977;SDS011;8605;52.548;4.918;2022-12-11T02:47:13;35.53;;;15.07;;
16977;SDS011;8605;52.548;4.918;2022-12-11T02:52:17;40.73;;;17.10;;
16977;SDS011;8605;52.548;4.918;2022-12-11T02:57:23;40.73;;;17.23;;
16977;SDS011;8605;52.548;4.918;2022-12-11T03:02:30;39.23;;;18.00;;
16977;SDS011;8605;52.548;4.918;2022-12-11T03:07:34;36.43;;;15.90;;
16977;SDS011;8605;52.548;4.918;2022-12-11T03:12:39;40.20;;;15.90;;
16977;SDS011;8605;52.548;4.918;2022-12-11T03:17:53;34.10;;;16.97;;
16977;SDS011;8605;52.548;4.918;2022-12-11T03:23:03;33.70;;;14.53;;
16977;SDS011;8605;52.548;4.918;2022-12-11T03:28:11;35.40;;;14.43;;
16977;SDS011;8605;52.548;4.918;2022-12-11T03:33:18;38.00;;;17.70;;
16977;SDS011;8605;52.548;4.918;2022-12-11T03:38:26;31.90;;;14.87;;
16977;SDS011;8605;52.548;4.918;2022-12-11T03:43:31;37.60;;;17.20;;
16977;SDS011;8605;52.548;4.918;2022-12-11T03:48:36;29.87;;;14.77;;
16977;SDS011;8605;52.548;4.918;2022-12-11T03:53:40;31.63;;;12.67;;
16977;SDS011;8605;52.548;4.918;2022-12-11T03:58:44;30.37;;;14.33;;
16977;SDS011;8605;52.548;4.918;2022-12-11T04:03:48;28.17;;;13.73;;
16977;SDS011;8605;52.548;4.918;2022-12-11T04:08:51;29.80;;;13.80;;
16977;SDS011;8605;52.548;4.918;2022-12-11T04:13:54;26.87;;;13.53;;
16977;SDS011;8605;52.548;4.918;2022-12-11T04:19:12;30.87;;;14.47;;
16977;SDS011;8605;52.548;4.918;2022-12-11T04:24:33;29.77;;;13.90;;
16977;SDS011;8605;52.548;4.918;2022-12-11T04:29:36;29.80;;;14.00;;
16977;SDS011;8605;52.548;4.918;2022-12-11T04:34:40;32.53;;;13.33;;
16977;SDS011;8605;52.548;4.918;2022-12-11T04:39:43;35.80;;;15.80;;
16977;SDS011;8605;52.548;4.918;2022-12-11T04:44:45;27.13;;;13.50;;
16977;SDS011;8605;52.548;4.918;2022-12-11T04:49:50;29.27;;;14.67;;
16977;SDS011;8605;52.548;4.918;2022-12-11T04:54:53;29.23;;;13.77;;
16977;SDS011;8605;52.548;4.918;2022-12-11T04:59:56;33.90;;;14.57;;
16977;SDS011;8605;52.548;4.918;2022-12-11T05:05:01;32.80;;;14.43;;
16977;SDS011;8605;52.548;4.918;2022-12-11T05:10:06;23.03;;;12.07;;
16977;SDS011;8605;52.548;4.918;2022-12-11T05:15:10;22.70;;;11.63;;
16977;SDS011;8605;52.548;4.918;2022-12-11T05:20:14;28.70;;;12.50;;
16977;SDS011;8605;52.548;4.918;2022-12-11T05:25:18;27.60;;;12.00;;
16977;SDS011;8605;52.548;4.918;2022-12-11T05:30:21;26.23;;;12.73;;
16977;SDS011;8605;52.548;4.918;2022-12-11T05:35:25;23.17;;;11.67;;
16977;SDS011;8605;52.548;4.918;2022-12-11T05:40:28;24.53;;;12.13;;
16977;SDS011;8605;52.548;4.918;2022-12-11T05:45:30;21.77;;;11.23;;
16977;SDS011;8605;52.548;4.918;2022-12-11T05:50:35;30.80;;;13.10;;
16977;SDS011;8605;52.548;4.918;2022-12-11T05:55:41;28.73;;;12.77;;
16977;SDS011;8605;52.548;4.918;2022-12-11T06:00:44;26.93;;;13.07;;
16977;SDS011;8605;52.548;4.918;2022-12-11T06:05:48;37.30;;;13.77;;
16977;SDS011;8605;52.548;4.918;2022-12-11T06:10:51;32.57;;;12.80;;
16977;SDS011;8605;52.548;4.918;2022-12-11T06:15:54;28.60;;;13.03;;
16977;SDS011;8605;52.548;4.918;2022-12-11T06:20:58;35.03;;;13.77;;
16977;SDS011;8605;52.548;4.918;2022-12-11T06:26:02;35.30;;;14.17;;
16977;SDS011;8605;52.548;4.918;2022-12-11T06:31:05;31.10;;;15.27;;
16977;SDS011;8605;52.548;4.918;2022-12-11T06:36:10;36.57;;;16.20;;
16977;SDS011;8605;52.548;4.918;2022-12-11T06:41:15;40.50;;;15.53;;
16977;SDS011;8605;52.548;4.918;2022-12-11T06:46:18;38.40;;;17.43;;
16977;SDS011;8605;52.548;4.918;2022-12-11T06:51:23;36.37;;;16.13;;
16977;SDS011;8605;52.548;4.918;2022-12-11T06:56:25;28.10;;;14.97;;
16977;SDS011;8605;52.548;4.918;2022-12-11T07:01:28;36.23;;;15.17;;
16977;SDS011;8605;52.548;4.918;2022-12-11T07:06:34;30.30;;;13.83;;
16977;SDS011;8605;52.548;4.918;2022-12-11T07:11:36;35.67;;;13.23;;
16977;SDS011;8605;52.548;4.918;2022-12-11T07:16:39;33.37;;;15.80;;
16977;SDS011;8605;52.548;4.918;2022-12-11T07:21:44;31.63;;;14.43;;
16977;SDS011;8605;52.548;4.918;2022-12-11T07:26:47;30.43;;;13.70;;
16977;SDS011;8605;52.548;4.918;2022-12-11T07:31:50;32.03;;;15.70;;
16977;SDS011;8605;52.548;4.918;2022-12-11T07:36:54;37.47;;;13.70;;
16977;SDS011;8605;52.548;4.918;2022-12-11T07:41:57;34.00;;;14.47;;
16977;SDS011;8605;52.548;4.918;2022-12-11T07:47:00;27.97;;;12.33;;
16977;SDS011;8605;52.548;4.918;2022-12-11T07:52:04;31.43;;;13.07;;
16977;SDS011;8605;52.548;4.918;2022-12-11T07:57:07;26.53;;;12.17;;
16977;SDS011;8605;52.548;4.918;2022-12-11T08:02:14;22.77;;;11.93;;
16977;SDS011;8605;52.548;4.918;2022-12-11T08:07:19;26.50;;;13.03;;
16977;SDS011;8605;52.548;4.918;2022-12-11T08:12:21;22.47;;;11.53;;
16977;SDS011;8605;52.548;4.918;2022-12-11T08:17:24;24.47;;;11.57;;
16977;SDS011;8605;52.548;4.918;2022-12-11T08:22:34;27.80;;;12.57;;
16977;SDS011;8605;52.548;4.918;2022-12-11T08:27:37;27.17;;;10.43;;
16977;SDS011;8605;52.548;4.918;2022-12-11T08:32:40;26.73;;;11.07;;
16977;SDS011;8605;52.548;4.918;2022-12-11T08:37:44;22.40;;;10.60;;
16977;SDS011;8605;52.548;4.918;2022-12-11T08:42:47;24.73;;;9.67;;
16977;SDS011;8605;52.548;4.918;2022-12-11T08:47:50;21.93;;;10.80;;
16977;SDS011;8605;52.548;4.918;2022-12-11T08:52:56;26.10;;;11.60;;
16977;SDS011;8605;52.548;4.918;2022-12-11T08:57:59;21.03;;;8.80;;
16977;SDS011;8605;52.548;4.918;2022-12-11T09:03:02;24.40;;;11.20;;
16977;SDS011;8605;52.548;4.918;2022-12-11T09:08:14;24.47;;;9.10;;
16977;SDS011;8605;52.548;4.918;2022-12-11T09:13:17;26.47;;;10.67;;
16977;SDS011;8605;52.548;4.918;2022-12-11T09:18:20;21.53;;;10.90;;
16977;SDS011;8605;52.548;4.918;2022-12-11T09:23:24;25.07;;;10.43;;
16977;SDS011;8605;52.548;4.918;2022-12-11T09:28:27;23.53;;;10.63;;
16977;SDS011;8605;52.548;4.918;2022-12-11T09:33:30;22.70;;;10.47;;
16977;SDS011;8605;52.548;4.918;2022-12-11T09:38:34;20.70;;;9.57;;
16977;SDS011;8605;52.548;4.918;2022-12-11T09:43:38;20.20;;;9.90;;
16977;SDS011;8605;52.548;4.918;2022-12-11T09:48:45;19.97;;;10.67;;
16977;SDS011;8605;52.548;4.918;2022-12-11T09:53:50;23.87;;;10.97;;
16977;SDS011;8605;52.548;4.918;2022-12-11T09:58:59;27.50;;;11.07;;
16977;SDS011;8605;52.548;4.918;2022-12-11T10:04:33;27.97;;;12.43;;
16977;SDS011;8605;52.548;4.918;2022-12-11T10:09:45;28.33;;;11.67;;
16977;SDS011;8605;52.548;4.918;2022-12-11T10:14:54;22.10;;;10.50;;
16977;SDS011;8605;52.548;4.918;2022-12-11T10:20:06;18.83;;;9.10;;
16977;SDS011;8605;52.548;4.918;2022-12-11T10:25:21;24.27;;;10.37;;
16977;SDS011;8605;52.548;4.918;2022-12-11T10:30:28;24.73;;;10.93;;
16977;SDS011;8605;52.548;4.918;2022-12-11T10:35:35;26.67;;;11.10;;
16977;SDS011;8605;52.548;4.918;2022-12-11T10:40:43;21.63;;;9.30;;
16977;SDS011;8605;52.548;4.918;2022-12-11T10:45:50;18.70;;;9.13;;
16977;SDS011;8605;52.548;4.918;2022-12-11T10:50:55;17.43;;;9.27;;
16977;SDS011;8605;52.548;4.918;2022-12-11T10:56:02;13.73;;;7.37;;
16977;SDS011;8605;52.548;4.918;2022-12-11T11:01:06;19.73;;;8.10;;
16977;SDS011;8605;52.548;4.918;2022-12-11T11:06:13;10.93;;;6.87;;
16977;SDS011;8605;52.548;4.918;2022-12-11T11:11:24;16.33;;;6.63;;
16977;SDS011;8605;52.548;4.918;2022-12-11T11:16:29;15.27;;;6.53;;
16977;SDS011;8605;52.548;4.918;2022-12-11T11:21:33;11.77;;;6.30;;
16977;SDS011;8605;52.548;4.918;2022-12-11T11:26:37;13.63;;;6.33;;
16977;SDS011;8605;52.548;4.918;2022-12-11T11:32:01;14.80;;;6.13;;
16977;SDS011;8605;52.548;4.918;2022-12-11T11:37:21;16.00;;;7.00;;
16977;SDS011;8605;52.548;4.918;2022-12-11T11:42:32;16.30;;;7.47;;
16977;SDS011;8605;52.548;4.918;2022-12-11T11:47:41;12.80;;;6.87;;
16977;SDS011;8605;52.548;4.918;2022-12-11T11:52:52;11.87;;;6.23;;
16977;SDS011;8605;52.548;4.918;2022-12-11T11:58:01;16.23;;;8.17;;
16977;SDS011;8605;52.548;4.918;2022-12-11T12:03:09;15.20;;;7.80;;
16977;SDS011;8605;52.548;4.918;2022-12-11T12:08:16;18.33;;;7.67;;
16977;SDS011;8605;52.548;4.918;2022-12-11T12:13:28;15.90;;;7.47;;
16977;SDS011;8605;52.548;4.918;2022-12-11T12:18:51;19.10;;;8.87;;
16977;SDS011;8605;52.548;4.918;2022-12-11T12:24:03;8.13;;;5.63;;
16977;SDS011;8605;52.548;4.918;2022-12-11T12:29:28;14.43;;;6.50;;
16977;SDS011;8605;52.548;4.918;2022-12-11T12:34:43;13.30;;;7.50;;
16977;SDS011;8605;52.548;4.918;2022-12-11T12:39:55;18.77;;;7.73;;
16977;SDS011;8605;52.548;4.918;2022-12-11T12:45:06;14.53;;;8.70;;
16977;SDS011;8605;52.548;4.918;2022-12-11T12:50:14;18.93;;;8.23;;
16977;SDS011;8605;52.548;4.918;2022-12-11T12:55:20;15.03;;;8.43;;
16977;SDS011;8605;52.548;4.918;2022-12-11T13:00:26;17.40;;;7.70;;
16977;SDS011;8605;52.548;4.918;2022-12-11T13:05:31;14.60;;;7.50;;
16977;SDS011;8605;52.548;4.918;2022-12-11T13:10:35;15.00;;;7.37;;
16977;SDS011;8605;52.548;4.918;2022-12-11T13:15:41;14.30;;;8.13;;
16977;SDS011;8605;52.548;4.918;2022-12-11T13:20:45;14.40;;;6.47;;
16977;SDS011;8605;52.548;4.918;2022-12-11T13:25:51;10.40;;;5.67;;
16977;SDS011;8605;52.548;4.918;2022-12-11T13:30:59;17.57;;;7.50;;
16977;SDS011;8605;52.548;4.918;2022-12-11T13:36:22;15.53;;;6.97;;
16977;SDS011;8605;52.548;4.918;2022-12-11T13:41:28;16.43;;;7.17;;
16977;SDS011;8605;52.548;4.918;2022-12-11T13:46:34;19.03;;;8.57;;
16977;SDS011;8605;52.548;4.918;2022-12-11T13:51:38;12.73;;;7.40;;
16977;SDS011;8605;52.548;4.918;2022-12-11T13:56:51;17.20;;;7.57;;
16977;SDS011;8605;52.548;4.918;2022-12-11T14:02:05;13.60;;;7.27;;
16977;SDS011;8605;52.548;4.918;2022-12-11T14:07:16;19.27;;;7.70;;
16977;SDS011;8605;52.548;4.918;2022-12-11T14:12:22;22.97;;;8.17;;
16977;SDS011;8605;52.548;4.918;2022-12-11T14:17:27;23.17;;;11.17;;
16977;SDS011;8605;52.548;4.918;2022-12-11T14:22:31;21.87;;;8.90;;
16977;SDS011;8605;52.548;4.918;2022-12-11T14:27:34;18.97;;;9.37;;
16977;SDS011;8605;52.548;4.918;2022-12-11T14:32:40;21.90;;;10.60;;
16977;SDS011;8605;52.548;4.918;2022-12-11T14:37:44;18.83;;;9.50;;
16977;SDS011;8605;52.548;4.918;2022-12-11T14:42:48;26.00;;;10.87;;
16977;SDS011;8605;52.548;4.918;2022-12-11T14:48:02;23.07;;;10.47;;
16977;SDS011;8605;52.548;4.918;2022-12-11T14:53:09;18.43;;;8.80;;
16977;SDS011;8605;52.548;4.918;2022-12-11T14:58:16;16.53;;;8.77;;
16977;SDS011;8605;52.548;4.918;2022-12-11T15:03:23;18.43;;;7.53;;
16977;SDS011;8605;52.548;4.918;2022-12-11T15:08:32;18.40;;;8.40;;
16977;SDS011;8605;52.548;4.918;2022-12-11T15:13:38;19.90;;;7.87;;
16977;SDS011;8605;52.548;4.918;2022-12-11T15:18:54;23.00;;;11.07;;
16977;SDS011;8605;52.548;4.918;2022-12-11T15:23:59;23.87;;;10.77;;
16977;SDS011;8605;52.548;4.918;2022-12-11T15:29:05;27.60;;;11.97;;
16977;SDS011;8605;52.548;4.918;2022-12-11T15:34:22;28.27;;;13.00;;
16977;SDS011;8605;52.548;4.918;2022-12-11T15:39:25;24.33;;;10.77;;
16977;SDS011;8605;52.548;4.918;2022-12-11T15:44:28;23.97;;;11.73;;
16977;SDS011;8605;52.548;4.918;2022-12-11T15:49:33;30.10;;;12.47;;
16977;SDS011;8605;52.548;4.918;2022-12-11T15:54:35;22.20;;;11.60;;
16977;SDS011;8605;52.548;4.918;2022-12-11T15:59:38;38.30;;;13.20;;
16977;SDS011;8605;52.548;4.918;2022-12-11T16:04:43;20.70;;;10.00;;
16977;SDS011;8605;52.548;4.918;2022-12-11T16:09:46;21.27;;;11.07;;
16977;SDS011;8605;52.548;4.918;2022-12-11T16:14:49;22.77;;;10.37;;
16977;SDS011;8605;52.548;4.918;2022-12-11T16:19:53;29.07;;;10.63;;
16977;SDS011;8605;52.548;4.918;2022-12-11T16:24:56;38.83;;;13.33;;
16977;SDS011;8605;52.548;4.918;2022-12-11T16:29:59;27.63;;;13.07;;
16977;SDS011;8605;52.548;4.918;2022-12-11T16:35:03;28.60;;;11.40;;
16977;SDS011;8605;52.548;4.918;2022-12-11T16:40:07;31.23;;;13.70;;
16977;SDS011;8605;52.548;4.918;2022-12-11T16:45:12;32.13;;;13.37;;
16977;SDS011;8605;52.548;4.918;2022-12-11T16:50:18;23.40;;;10.53;;
16977;SDS011;8605;52.548;4.918;2022-12-11T16:55:21;28.83;;;11.17;;
16977;SDS011;8605;52.548;4.918;2022-12-11T17:00:24;34.70;;;12.93;;
16977;SDS011;8605;52.548;4.918;2022-12-11T17:05:28;31.00;;;14.43;;
16977;SDS011;8605;52.548;4.918;2022-12-11T17:10:31;29.43;;;12.20;;
16977;SDS011;8605;52.548;4.918;2022-12-11T17:15:37;31.30;;;14.20;;
16977;SDS011;8605;52.548;4.918;2022-12-11T17:20:43;28.20;;;12.73;;
16977;SDS011;8605;52.548;4.918;2022-12-11T17:25:46;27.37;;;12.97;;
16977;SDS011;8605;52.548;4.918;2022-12-11T17:30:49;33.80;;;13.83;;
16977;SDS011;8605;52.548;4.918;2022-12-11T17:35:54;35.57;;;14.37;;
16977;SDS011;8605;52.548;4.918;2022-12-11T17:40:59;31.67;;;13.63;;
16977;SDS011;8605;52.548;4.918;2022-12-11T17:46:02;35.20;;;14.90;;
16977;SDS011;8605;52.548;4.918;2022-12-11T17:51:07;37.07;;;13.20;;
16977;SDS011;8605;52.548;4.918;2022-12-11T17:56:11;27.87;;;13.67;;
16977;SDS011;8605;52.548;4.918;2022-12-11T18:01:14;30.70;;;13.27;;
16977;SDS011;8605;52.548;4.918;2022-12-11T18:06:18;26.67;;;13.03;;
16977;SDS011;8605;52.548;4.918;2022-12-11T18:11:23;27.20;;;13.57;;
16977;SDS011;8605;52.548;4.918;2022-12-11T18:16:27;26.07;;;12.47;;
16977;SDS011;8605;52.548;4.918;2022-12-11T18:21:34;25.97;;;12.50;;
16977;SDS011;8605;52.548;4.918;2022-12-11T18:26:40;26.70;;;14.83;;
16977;SDS011;8605;52.548;4.918;2022-12-11T18:31:44;31.70;;;12.90;;
16977;SDS011;8605;52.548;4.918;2022-12-11T18:36:48;28.83;;;12.47;;
16977;SDS011;8605;52.548;4.918;2022-12-11T18:41:51;30.67;;;13.37;;
16977;SDS011;8605;52.548;4.918;2022-12-11T18:47:14;28.30;;;12.63;;
16977;SDS011;8605;52.548;4.918;2022-12-11T18:52:18;41.37;;;14.57;;
16977;SDS011;8605;52.548;4.918;2022-12-11T18:57:21;29.27;;;13.47;;
16977;SDS011;8605;52.548;4.918;2022-12-11T19:02:24;31.07;;;13.57;;
16977;SDS011;8605;52.548;4.918;2022-12-11T19:07:28;31.83;;;14.50;;
16977;SDS011;8605;52.548;4.918;2022-12-11T19:12:31;26.00;;;11.20;;
16977;SDS011;8605;52.548;4.918;2022-12-11T19:17:35;36.37;;;14.13;;
16977;SDS011;8605;52.548;4.918;2022-12-11T19:22:39;29.30;;;13.43;;
16977;SDS011;8605;52.548;4.918;2022-12-11T19:27:43;35.63;;;13.33;;
16977;SDS011;8605;52.548;4.918;2022-12-11T19:32:47;33.03;;;13.47;;
16977;SDS011;8605;52.548;4.918;2022-12-11T19:37:52;26.90;;;13.03;;
16977;SDS011;8605;52.548;4.918;2022-12-11T19:42:55;30.30;;;12.80;;
16977;SDS011;8605;52.548;4.918;2022-12-11T19:47:57;27.87;;;13.60;;
16977;SDS011;8605;52.548;4.918;2022-12-11T19:53:02;26.60;;;11.50;;
16977;SDS011;8605;52.548;4.918;2022-12-11T19:58:05;24.80;;;12.03;;
16977;SDS011;8605;52.548;4.918;2022-12-11T20:03:08;25.93;;;13.93;;
16977;SDS011;8605;52.548;4.918;2022-12-11T20:08:12;34.60;;;11.67;;
16977;SDS011;8605;52.548;4.918;2022-12-11T20:13:35;23.23;;;11.83;;
16977;SDS011;8605;52.548;4.918;2022-12-11T20:18:40;26.73;;;12.60;;
16977;SDS011;8605;52.548;4.918;2022-12-11T20:23:45;27.83;;;12.97;;
16977;SDS011;8605;52.548;4.918;2022-12-11T20:28:49;23.67;;;11.73;;
16977;SDS011;8605;52.548;4.918;2022-12-11T20:33:54;28.93;;;12.37;;
16977;SDS011;8605;52.548;4.918;2022-12-11T20:38:58;26.30;;;11.57;;
16977;SDS011;8605;52.548;4.918;2022-12-11T20:44:01;24.00;;;10.70;;
16977;SDS011;8605;52.548;4.918;2022-12-11T20:49:04;21.90;;;10.47;;
16977;SDS011;8605;52.548;4.918;2022-12-11T20:54:14;24.13;;;12.07;;
16977;SDS011;8605;52.548;4.918;2022-12-11T20:59:17;23.87;;;12.10;;
16977;SDS011;8605;52.548;4.918;2022-12-11T21:04:20;33.03;;;12.57;;
16977;SDS011;8605;52.548;4.918;2022-12-11T21:09:24;25.03;;;11.47;;
16977;SDS011;8605;52.548;4.918;2022-12-11T21:14:28;28.37;;;12.57;;
16977;SDS011;8605;52.548;4.918;2022-12-11T21:19:31;27.97;;;11.83;;
16977;SDS011;8605;52.548;4.918;2022-12-11T21:24:36;24.40;;;11.30;;
16977;SDS011;8605;52.548;4.918;2022-12-11T21:29:39;21.20;;;11.07;;
16977;SDS011;8605;52.548;4.918;2022-12-11T21:34:42;18.27;;;9.97;;
16977;SDS011;8605;52.548;4.918;2022-12-11T21:39:46;18.43;;;8.07;;
16977;SDS011;8605;52.548;4.918;2022-12-11T21:44:49;19.93;;;9.13;;
16977;SDS011;8605;52.548;4.918;2022-12-11T21:50:12;16.30;;;8.53;;
16977;SDS011;8605;52.548;4.918;2022-12-11T21:55:16;18.57;;;7.97;;
16977;SDS011;8605;52.548;4.918;2022-12-11T22:00:19;21.90;;;9.27;;
16977;SDS011;8605;52.548;4.918;2022-12-11T22:05:22;19.03;;;7.90;;
16977;SDS011;8605;52.548;4.918;2022-12-11T22:10:27;15.23;;;8.27;;
16977;SDS011;8605;52.548;4.918;2022-12-11T22:15:30;21.27;;;9.53;;
16977;SDS011;8605;52.548;4.918;2022-12-11T22:20:33;21.00;;;10.37;;
16977;SDS011;8605;52.548;4.918;2022-12-11T22:25:38;17.13;;;8.73;;
16977;SDS011;8605;52.548;4.918;2022-12-11T22:30:41;17.27;;;9.17;;
16977;SDS011;8605;52.548;4.918;2022-12-11T22:35:44;16.77;;;7.20;;
16977;SDS011;8605;52.548;4.918;2022-12-11T22:40:48;16.87;;;7.80;;
16977;SDS011;8605;52.548;4.918;2022-12-11T22:45:52;17.53;;;7.77;;
16977;SDS011;8605;52.548;4.918;2022-12-11T22:50:55;24.30;;;11.23;;
16977;SDS011;8605;52.548;4.918;2022-12-11T22:56:03;18.70;;;8.37;;
16977;SDS011;8605;52.548;4.918;2022-12-11T23:01:07;18.10;;;8.83;;
16977;SDS011;8605;52.548;4.918;2022-12-11T23:06:12;19.90;;;9.83;;
16977;SDS011;8605;52.548;4.918;2022-12-11T23:11:19;22.13;;;9.20;;
16977;SDS011;8605;52.548;4.918;2022-12-11T23:16:24;16.30;;;9.63;;
16977;SDS011;8605;52.548;4.918;2022-12-11T23:21:28;20.10;;;9.43;;
16977;SDS011;8605;52.548;4.918;2022-12-11T23:26:32;19.77;;;8.93;;
16977;SDS011;8605;52.548;4.918;2022-12-11T23:31:35;22.00;;;8.93;;
16977;SDS011;8605;52.548;4.918;2022-12-11T23:36:38;25.13;;;9.27;;
16977;SDS011;8605;52.548;4.918;2022-12-11T23:41:42;18.03;;;8.53;;
16977;SDS011;8605;52.548;4.918;2022-12-11T23:46:45;20.50;;;8.03;;
16977;SDS011;8605;52.548;4.918;2022-12-11T23:51:48;16.57;;;7.80;;
16977;SDS011;8605;52.548;4.918;2022-12-11T23:56:52;20.10;;;8.70;;
